Time;durP1;ratioP1;P1;durP2;ratioP2;P2;SDS_P1;SDS_P2;PMS_P1;PMS_P2;Temp;Humidity;BMP_temperature;BMP_pressure;BME280_temperature;BME280_humidity;BME280_pressure;Samples;Min_cycle;Max_cycle;Signal;HPM_P1;HPM_P2
2022/06/30 00:02:18;;;;;;;55.78;39.55;;;;;;;16.24;96.74;100956.84;5095913;28;20047;-48
2022/06/30 00:04:43;;;;;;;50.85;36.58;;;;;;;16.19;96.08;100961.13;5094842;28;20046;-51
2022/06/30 00:07:08;;;;;;;51.35;36.42;;;;;;;16.16;96.24;100955.91;5095464;28;20115;-51
2022/06/30 00:09:33;;;;;;;52.50;35.92;;;;;;;16.15;95.62;100953.28;5095382;28;20380;-49
2022/06/30 00:11:59;;;;;;;53.53;36.20;;;;;;;16.12;95.72;100960.19;5094298;28;20032;-48
2022/06/30 00:14:24;;;;;;;50.70;36.53;;;;;;;16.08;95.85;100955.81;5095412;28;20020;-50
2022/06/30 00:16:49;;;;;;;52.33;37.63;;;;;;;16.11;95.75;100950.69;5095478;28;20043;-50
2022/06/30 00:19:15;;;;;;;59.13;39.03;;;;;;;16.07;95.99;100954.09;5094398;28;20020;-50
2022/06/30 00:21:40;;;;;;;54.50;37.08;;;;;;;15.98;95.84;100948.81;5095307;28;20103;-49
2022/06/30 00:24:05;;;;;;;56.08;38.17;;;;;;;16.00;96.36;100952.31;5094949;28;20028;-49
2022/06/30 00:26:31;;;;;;;62.53;40.28;;;;;;;15.96;96.49;100946.19;5094245;28;20396;-48
2022/06/30 00:28:56;;;;;;;58.78;38.47;;;;;;;15.95;96.38;100941.00;5095343;28;20021;-48
2022/06/30 00:31:21;;;;;;;56.28;38.67;;;;;;;15.90;96.66;100938.34;5094837;28;20372;-50
2022/06/30 00:33:46;;;;;;;55.58;38.22;;;;;;;15.88;96.40;100936.59;5094151;28;20460;-49
2022/06/30 00:36:12;;;;;;;52.38;37.35;;;;;;;15.85;96.37;100933.97;5094906;28;20035;-47
2022/06/30 00:38:38;;;;;;;56.28;39.10;;;;;;;15.83;96.63;100933.97;5094800;28;20020;-50
2022/06/30 00:41:03;;;;;;;57.45;40.10;;;;;;;15.84;97.05;100934.81;5093850;28;20023;-47
2022/06/30 00:43:29;;;;;;;50.63;38.38;;;;;;;15.80;96.51;100933.88;5094830;28;20038;-50
2022/06/30 00:45:54;;;;;;;58.25;41.50;;;;;;;15.78;96.72;100933.88;5094933;28;20097;-50
2022/06/30 00:48:19;;;;;;;61.90;41.65;;;;;;;15.80;96.66;100934.78;5093733;28;20402;-47
2022/06/30 00:50:45;;;;;;;58.42;41.22;;;;;;;15.82;96.51;100936.56;5094567;28;20442;-51
2022/06/30 00:53:11;;;;;;;58.58;40.08;;;;;;;15.77;96.96;100933.88;5094597;28;20017;-50
2022/06/30 00:55:38;;;;;;;58.33;40.05;;;;;;;15.75;96.97;100936.47;5093684;28;20545;-49
2022/06/30 00:58:05;;;;;;;60.20;43.75;;;;;;;15.73;97.14;100934.69;5094150;28;20411;-48
2022/06/30 01:00:34;;;;;;;56.95;41.40;;;;;;;15.75;97.21;100940.75;5093809;28;20079;-48
2022/06/30 01:03:00;;;;;;;56.22;41.25;;;;;;;15.74;97.11;100939.91;5093566;28;20082;-49
2022/06/30 01:05:27;;;;;;;60.15;41.08;;;;;;;15.80;97.73;100942.56;5094319;28;20038;-47
2022/06/30 01:07:55;;;;;;;66.43;43.53;;;;;;;15.85;98.34;100937.44;5093781;28;20107;-50
2022/06/30 01:13:05;;;;;;;59.40;42.17;;;;;;;15.91;97.20;100936.63;5094397;28;20097;-49
2022/06/30 01:15:31;;;;;;;59.00;40.25;;;;;;;15.89;97.13;100938.34;5093478;28;20024;-48
2022/06/30 01:17:56;;;;;;;54.17;39.47;;;;;;;15.91;97.49;100941.84;5094668;28;20480;-50
2022/06/30 01:20:30;;;;;;;60.50;39.67;;;;;;;15.88;97.46;100937.47;5093852;28;20032;-48
2022/06/30 01:22:56;;;;;;;55.42;39.97;;;;;;;15.88;96.73;100944.38;5093299;28;20024;-50
2022/06/30 01:25:24;;;;;;;59.47;37.88;;;;;;;15.84;96.33;100940.03;5093871;28;20384;-48
2022/06/30 01:27:50;;;;;;;57.33;38.50;;;;;;;15.84;96.00;100945.22;5094101;28;20028;-46
2022/06/30 01:30:15;;;;;;;56.17;37.85;;;;;;;15.79;95.75;100938.22;5093012;28;20081;-49
2022/06/30 01:32:40;;;;;;;53.65;39.10;;;;;;;15.74;96.12;100944.25;5093780;28;20024;-47
2022/06/30 01:35:06;;;;;;;59.45;40.33;;;;;;;15.69;96.29;100941.59;5093562;28;20022;-47
2022/06/30 01:37:55;;;;;;;61.05;40.63;;;;;;;15.67;96.13;100948.47;5092679;28;20379;-49
2022/06/30 01:40:23;;;;;;;50.42;38.00;;;;;;;15.62;96.62;100950.16;5093712;28;20024;-50
2022/06/30 01:42:48;;;;;;;55.25;39.45;;;;;;;15.60;96.71;100947.56;5093779;28;20032;-47
2022/06/30 01:45:14;;;;;;;69.07;43.13;;;;;;;15.63;98.16;100951.91;5092730;28;20034;-51
2022/06/30 01:47:40;;;;;;;69.43;45.55;;;;;;;15.66;98.71;100951.97;5093432;28;20065;-51
2022/06/30 01:50:08;;;;;;;63.20;42.40;;;;;;;15.67;98.83;100953.69;5092700;28;20024;-48
2022/06/30 01:52:33;;;;;;;73.30;47.50;;;;;;;15.66;98.83;100945.88;5093271;28;20403;-50
2022/06/30 01:54:59;;;;;;;71.10;44.35;;;;;;;15.66;98.73;100951.97;5093369;28;20491;-51
2022/06/30 01:57:24;;;;;;;63.97;44.10;;;;;;;15.63;98.58;100951.91;5092644;28;20143;-50
2022/06/30 01:59:49;;;;;;;65.28;43.72;;;;;;;15.56;97.29;100950.13;5093228;28;20048;-50
2022/06/30 02:02:14;;;;;;;64.43;43.55;;;;;;;15.53;97.70;100950.97;5093041;28;20036;-47
2022/06/30 02:04:50;;;;;;;62.55;42.55;;;;;;;15.47;97.31;100949.16;5092755;28;20024;-51
2022/06/30 02:07:19;;;;;;;62.75;41.45;;;;;;;15.36;96.88;100953.34;5093210;28;20024;-50
2022/06/30 02:09:46;;;;;;;57.45;40.83;;;;;;;15.27;96.96;100958.44;5093411;28;20479;-50
2022/06/30 02:14:57;;;;;;;65.13;41.60;;;;;;;15.11;97.76;100967.75;5093621;28;20039;-50
2022/06/30 02:17:23;;;;;;;65.38;44.58;;;;;;;15.13;98.77;100964.34;5093163;28;20114;-50
2022/06/30 02:19:48;;;;;;;62.72;45.47;;;;;;;15.14;99.83;100966.09;5092480;28;20049;-51
2022/06/30 02:22:13;;;;;;;65.15;43.67;;;;;;;15.12;99.35;100960.00;5092981;28;20051;-51
2022/06/30 02:24:39;;;;;;;64.25;42.65;;;;;;;15.09;98.27;100962.56;5092919;28;20031;-49
2022/06/30 02:27:04;;;;;;;62.85;43.35;;;;;;;15.00;97.23;100953.78;5092065;28;20031;-50
2022/06/30 02:29:30;;;;;;;65.80;46.97;;;;;;;15.04;98.82;100960.75;5092800;28;20028;-50
2022/06/30 02:31:55;;;;;;;72.68;47.25;;;;;;;15.02;98.97;100960.72;5093063;28;20039;-50
2022/06/30 02:34:20;;;;;;;83.22;54.00;;;;;;;15.08;100.00;100965.13;5092019;28;20036;-48
2022/06/30 02:36:46;;;;;;;84.65;52.75;;;;;;;15.11;100.00;100965.16;5092979;28;20420;-49
2022/06/30 02:39:11;;;;;;;77.95;50.88;;;;;;;15.15;100.00;100965.22;5092814;28;20440;-49
2022/06/30 02:41:36;;;;;;;75.47;50.83;;;;;;;15.17;100.00;100970.44;5091939;28;20016;-48
2022/06/30 02:44:02;;;;;;;88.20;54.92;;;;;;;15.19;100.00;100975.66;5092552;28;20076;-51
2022/06/30 02:46:28;;;;;;;88.95;54.20;;;;;;;15.29;100.00;100973.19;5092103;28;20028;-48
2022/06/30 02:48:53;;;;;;;86.38;52.53;;;;;;;15.33;100.00;100961.09;5092941;28;20024;-50
2022/06/30 02:51:19;;;;;;;87.80;53.58;;;;;;;15.31;100.00;100960.22;5092495;28;20039;-48
2022/06/30 02:53:44;;;;;;;80.68;50.83;;;;;;;15.31;100.00;100970.59;5092078;28;20379;-51
2022/06/30 02:56:11;;;;;;;75.70;49.92;;;;;;;15.25;99.50;100965.34;5092559;28;20107;-51
2022/06/30 02:58:37;;;;;;;75.45;50.65;;;;;;;15.21;99.25;100966.13;5092396;28;20055;-51
2022/06/30 03:01:02;;;;;;;75.47;47.38;;;;;;;15.11;98.71;100968.63;5091861;28;20024;-50
2022/06/30 03:03:28;;;;;;;64.40;44.75;;;;;;;14.98;97.96;100957.22;5092672;28;20031;-51
2022/06/30 03:05:53;;;;;;;68.68;44.50;;;;;;;14.89;97.63;100959.69;5092499;28;20161;-50
2022/06/30 03:08:18;;;;;;;71.22;46.47;;;;;;;14.84;98.56;100960.50;5091521;28;20016;-51
2022/06/30 03:10:43;;;;;;;75.43;47.15;;;;;;;14.80;99.14;100960.44;5092382;28;20028;-50
2022/06/30 03:13:09;;;;;;;85.00;52.13;;;;;;;14.82;100.00;100965.63;5092197;28;20480;-48
2022/06/30 03:15:34;;;;;;;80.97;51.83;;;;;;;14.81;100.00;100961.31;5091688;28;20028;-50
2022/06/30 03:17:59;;;;;;;62.42;43.72;;;;;;;14.66;98.46;100954.19;5092398;28;20028;-47
2022/06/30 03:20:25;;;;;;;73.68;46.00;;;;;;;14.61;98.34;100954.06;5092467;28;20151;-50
2022/06/30 03:22:50;;;;;;;67.28;44.88;;;;;;;14.48;97.64;100950.41;5091598;28;20484;-51
2022/06/30 03:25:15;;;;;;;66.57;43.60;;;;;;;14.43;97.80;100946.88;5095683;28;20035;-51
2022/06/30 03:27:41;;;;;;;84.90;52.15;;;;;;;14.46;99.68;100953.84;5096232;28;20028;-51
2022/06/30 03:30:07;;;;;;;74.35;46.58;;;;;;;14.44;100.00;100947.78;5095035;28;20024;-50
2022/06/30 03:32:32;;;;;;;72.53;47.83;;;;;;;14.42;100.00;100945.16;5095968;28;20036;-50
2022/06/30 03:34:57;;;;;;;72.25;46.70;;;;;;;14.41;100.00;100947.72;5096021;28;20112;-47
2022/06/30 03:37:22;;;;;;;70.78;46.75;;;;;;;14.40;100.00;100946.00;5095184;28;20024;-51
2022/06/30 03:39:48;;;;;;;84.95;55.15;;;;;;;14.45;100.00;100950.38;5095982;28;20028;-50
2022/06/30 03:42:13;;;;;;;87.10;52.00;;;;;;;14.45;100.00;100944.34;5095831;28;20488;-49
2022/06/30 03:44:39;;;;;;;72.22;46.35;;;;;;;14.43;100.00;100946.88;5095289;28;20483;-49
2022/06/30 03:47:05;;;;;;;80.80;48.40;;;;;;;14.35;100.00;100942.44;5095908;28;20032;-51
2022/06/30 03:49:30;;;;;;;74.90;49.45;;;;;;;14.32;100.00;100945.88;5095899;28;20024;-50
2022/06/30 03:51:55;;;;;;;74.55;48.53;;;;;;;14.29;99.98;100938.91;5095124;28;20031;-49
2022/06/30 03:54:20;;;;;;;69.25;47.17;;;;;;;14.31;100.00;100941.53;5095419;28;20025;-50
2022/06/30 03:56:46;;;;;;;72.43;46.97;;;;;;;14.29;100.00;100938.03;5094996;28;20472;-50
2022/06/30 03:59:11;;;;;;;81.43;52.75;;;;;;;14.35;100.00;100932.94;5095370;28;20385;-49
2022/06/30 04:01:36;;;;;;;77.60;49.22;;;;;;;14.33;100.00;100934.63;5095627;28;20016;-48
2022/06/30 04:04:02;;;;;;;88.63;53.97;;;;;;;14.41;100.00;100937.34;5094741;28;20032;-50
2022/06/30 04:06:27;;;;;;;73.28;46.67;;;;;;;14.36;100.00;100919.13;5095556;28;20111;-50
2022/06/30 04:08:52;;;;;;;77.82;49.95;;;;;;;14.33;100.00;100924.25;5095503;28;20463;-50
2022/06/30 04:11:18;;;;;;;77.82;48.20;;;;;;;14.35;100.00;100927.75;5094189;28;20028;-48
2022/06/30 04:13:43;;;;;;;79.97;51.08;;;;;;;14.36;100.00;100929.50;5095592;28;20094;-50
2022/06/30 04:16:08;;;;;;;73.57;47.83;;;;;;;14.34;100.00;100931.19;5095260;28;20111;-51
2022/06/30 04:18:34;;;;;;;76.80;49.13;;;;;;;14.42;100.00;100928.72;5094558;28;20028;-51
2022/06/30 04:20:59;;;;;;;83.57;52.35;;;;;;;14.43;100.00;100927.88;5095093;28;20020;-50
2022/06/30 04:23:24;;;;;;;87.32;55.00;;;;;;;14.48;100.00;100929.66;5095155;28;20017;-51
2022/06/30 04:25:49;;;;;;;90.53;56.17;;;;;;;14.54;100.00;100934.09;5094369;28;20028;-51
2022/06/30 04:28:15;;;;;;;97.03;59.28;;;;;;;14.64;100.00;100927.31;5095197;28;20406;-50
2022/06/30 04:33:24;;;;;;;110.88;65.22;;;;;;;14.86;100.00;100930.22;5094158;28;20074;-49
2022/06/30 04:35:50;;;;;;;110.95;64.78;;;;;;;14.95;100.00;100943.31;5093846;28;20039;-49
2022/06/30 04:38:15;;;;;;;120.95;66.95;;;;;;;15.08;100.00;100960.81;5094659;28;20353;-51
2022/06/30 04:43:24;;;;;;;103.82;66.20;;;;;;;15.35;100.00;100951.63;5094801;28;20035;-50
2022/06/30 04:45:49;;;;;;;106.85;66.65;;;;;;;15.43;100.00;100952.56;5095019;28;20024;-49
2022/06/30 04:48:15;;;;;;;99.03;63.90;;;;;;;15.55;100.00;100979.53;5093890;28;20024;-51
2022/06/30 04:50:40;;;;;;;112.28;63.70;;;;;;;15.67;100.00;100958.88;5094370;28;20024;-50
2022/06/30 04:53:06;;;;;;;92.50;57.17;;;;;;;15.76;100.00;100946.00;5093577;28;20027;-48
2022/06/30 04:55:31;;;;;;;83.22;55.17;;;;;;;15.81;100.00;100966.84;5094723;28;20043;-50
2022/06/30 04:57:56;;;;;;;91.18;54.60;;;;;;;15.94;100.00;100993.84;5094697;28;20028;-51
2022/06/30 05:00:22;;;;;;;83.88;56.03;;;;;;;16.01;99.05;100964.44;5093180;28;20047;-51
2022/06/30 05:02:47;;;;;;;91.90;56.97;;;;;;;16.09;99.11;100993.13;5094310;28;20031;-50
2022/06/30 05:05:13;;;;;;;88.22;56.45;;;;;;;16.13;99.28;100980.13;5094256;28;20031;-50
2022/06/30 05:07:38;;;;;;;85.97;57.28;;;;;;;16.18;99.08;100971.50;5093439;28;20034;-47
2022/06/30 05:10:04;;;;;;;95.32;63.78;;;;;;;16.20;98.56;100991.47;5094178;28;20152;-50
2022/06/30 05:12:29;;;;;;;90.75;61.30;;;;;;;16.22;99.05;100981.09;5094135;28;20028;-48
2022/06/30 05:14:54;;;;;;;88.82;60.78;;;;;;;16.24;98.70;100971.56;5093593;28;20024;-51
2022/06/30 05:17:20;;;;;;;93.75;62.78;;;;;;;16.27;98.54;100984.59;5093885;28;20099;-49
2022/06/30 05:19:45;;;;;;;96.80;63.30;;;;;;;16.29;99.17;100986.38;5094240;28;20031;-51
2022/06/30 05:22:10;;;;;;;100.53;64.15;;;;;;;16.34;98.85;100977.72;5093161;28;20048;-51
2022/06/30 05:27:19;;;;;;;98.20;65.68;;;;;;;16.37;98.40;100994.22;5094012;28;20062;-50
2022/06/30 05:29:45;;;;;;;111.00;66.72;;;;;;;16.39;97.95;100976.88;5093279;28;20040;-51
2022/06/30 05:32:10;;;;;;;110.20;66.30;;;;;;;16.41;98.30;100979.50;5093677;28;20390;-48
2022/06/30 05:34:36;;;;;;;102.07;68.40;;;;;;;16.46;98.50;100983.88;5093634;28;20079;-52
2022/06/30 05:37:03;;;;;;;103.35;68.80;;;;;;;16.44;97.95;100992.53;5093010;28;20034;-51
2022/06/30 05:39:29;;;;;;;102.70;66.63;;;;;;;16.50;98.59;100989.09;5093543;28;20460;-51
2022/06/30 05:41:54;;;;;;;101.72;67.13;;;;;;;16.52;97.70;100984.78;5093844;28;20081;-52
2022/06/30 05:44:19;;;;;;;103.32;69.18;;;;;;;16.57;98.34;100983.09;5092824;28;20429;-51
2022/06/30 05:46:45;;;;;;;113.35;70.70;;;;;;;16.61;97.64;100984.84;5093170;28;20039;-51
2022/06/30 05:49:10;;;;;;;105.43;66.03;;;;;;;16.68;97.68;100984.03;5093383;28;20467;-51
2022/06/30 05:51:36;;;;;;;105.82;66.32;;;;;;;16.73;97.34;100978.84;5092688;28;20039;-51
2022/06/30 05:54:02;;;;;;;108.90;65.57;;;;;;;16.76;97.51;100982.34;5093437;28;20493;-49
2022/06/30 05:56:27;;;;;;;106.50;63.55;;;;;;;16.77;96.83;100986.69;5092703;28;20021;-51
2022/06/30 05:58:53;;;;;;;102.65;59.03;;;;;;;16.78;95.14;100988.44;5093281;28;20089;-52
2022/06/30 06:01:18;;;;;;;99.00;58.63;;;;;;;16.81;95.48;100984.09;5093129;28;20024;-52
2022/06/30 06:03:44;;;;;;;94.40;58.33;;;;;;;16.78;94.95;100983.25;5092582;28;20133;-51
2022/06/30 06:06:09;;;;;;;88.43;56.17;;;;;;;16.85;95.04;100985.84;5093097;28;20384;-49
2022/06/30 06:08:34;;;;;;;88.22;54.85;;;;;;;16.88;95.10;100988.50;5093346;28;20391;-51
2022/06/30 06:11:00;;;;;;;88.97;55.92;;;;;;;16.89;94.92;100987.63;5092320;28;20387;-48
2022/06/30 06:13:25;;;;;;;94.65;54.95;;;;;;;16.92;94.71;100982.47;5093055;28;20395;-50
2022/06/30 06:15:50;;;;;;;87.05;54.83;;;;;;;16.96;94.70;100994.63;5093131;28;20094;-51
2022/06/30 06:18:16;;;;;;;90.22;54.97;;;;;;;16.99;94.83;100996.38;5092346;28;20025;-51
2022/06/30 06:20:42;;;;;;;89.22;54.03;;;;;;;17.05;94.53;100994.69;5093100;28;20027;-50
2022/06/30 06:23:07;;;;;;;88.18;53.25;;;;;;;17.11;93.01;100999.94;5093014;28;20020;-49
2022/06/30 06:25:33;;;;;;;86.15;50.13;;;;;;;17.17;92.96;101003.44;5092176;28;20390;-52
2022/06/30 06:30:42;;;;;;;85.10;51.00;;;;;;;17.34;93.98;101000.88;5093178;28;20035;-51
2022/06/30 06:33:08;;;;;;;76.47;46.95;;;;;;;17.47;93.89;101007.91;5091911;28;20028;-50
2022/06/30 06:35:33;;;;;;;65.50;36.38;;;;;;;17.49;90.02;101007.91;5092656;28;20032;-51
2022/06/30 06:37:58;;;;;;;67.63;36.33;;;;;;;17.51;90.64;101003.59;5092583;28;20126;-52
2022/06/30 06:40:24;;;;;;;66.63;37.20;;;;;;;17.56;89.66;101009.69;5092088;28;20052;-52
2022/06/30 06:42:49;;;;;;;54.88;34.17;;;;;;;17.61;89.58;101007.94;5092873;28;20032;-51
2022/06/30 06:45:14;;;;;;;59.53;33.42;;;;;;;17.64;89.09;101007.97;5092674;28;20376;-49
2022/06/30 06:47:40;;;;;;;59.38;29.83;;;;;;;17.68;88.73;101017.53;5091793;28;20016;-51
2022/06/30 06:50:07;;;;;;;58.90;30.83;;;;;;;17.81;89.43;101017.56;5092450;28;20031;-51
2022/06/30 06:52:32;;;;;;;52.17;29.67;;;;;;;17.88;88.09;101016.69;5091942;28;20086;-51
2022/06/30 06:54:57;;;;;;;52.92;27.98;;;;;;;18.01;88.23;101015.91;5092529;28;20024;-49
2022/06/30 06:57:23;;;;;;;57.15;28.05;;;;;;;18.07;87.31;101020.25;5092556;28;20482;-52
2022/06/30 06:59:48;;;;;;;53.67;27.98;;;;;;;18.13;87.13;101021.97;5094605;28;20040;-51
2022/06/30 07:02:13;;;;;;;51.08;28.38;;;;;;;18.13;86.71;101019.38;5096461;28;20073;-51
2022/06/30 07:04:38;;;;;;;58.22;27.83;;;;;;;18.17;86.99;101024.59;5096837;28;20027;-51
2022/06/30 07:07:04;;;;;;;47.85;25.67;;;;;;;18.29;87.75;101023.75;5095883;28;20024;-51
2022/06/30 07:09:29;;;;;;;52.88;27.00;;;;;;;18.39;86.97;101028.09;5096635;28;20027;-52
2022/06/30 07:11:54;;;;;;;52.58;26.63;;;;;;;18.48;84.74;101035.06;5096563;28;20078;-51
2022/06/30 07:14:20;;;;;;;50.13;24.92;;;;;;;18.53;84.54;101040.28;5095524;28;20024;-51
2022/06/30 07:16:45;;;;;;;50.08;25.30;;;;;;;18.58;84.22;101043.78;5096382;28;20120;-51
2022/06/30 07:19:10;;;;;;;51.70;25.42;;;;;;;18.62;84.30;101045.50;5096489;28;20498;-52
2022/06/30 07:21:36;;;;;;;47.78;23.05;;;;;;;18.68;84.27;101050.72;5095609;28;20376;-52
2022/06/30 07:24:01;;;;;;;44.92;22.75;;;;;;;18.80;84.60;101048.94;5096266;28;20016;-49
2022/06/30 07:26:27;;;;;;;41.60;21.08;;;;;;;18.81;83.58;101051.59;5096266;28;20020;-51
2022/06/30 07:28:52;;;;;;;44.35;19.85;;;;;;;18.92;83.11;101062.03;5095540;28;20031;-48
2022/06/30 07:31:20;;;;;;;46.40;19.70;;;;;;;19.00;83.75;101062.88;5095838;28;20028;-48
2022/06/30 07:33:45;;;;;;;44.80;19.08;;;;;;;19.00;82.05;101062.88;5096471;28;20020;-50
2022/06/30 07:36:10;;;;;;;43.70;18.63;;;;;;;19.05;82.04;101063.75;5095461;28;20018;-52
2022/06/30 07:38:36;;;;;;;42.80;15.93;;;;;;;19.23;82.70;101065.44;5096244;28;20032;-51
2022/06/30 07:41:01;;;;;;;40.80;16.88;;;;;;;19.36;81.87;101071.50;5096014;28;20051;-49
2022/06/30 07:43:26;;;;;;;38.85;16.83;;;;;;;19.33;79.75;101061.06;5095146;28;20020;-51
2022/06/30 07:45:52;;;;;;;38.72;16.88;;;;;;;19.38;80.09;101067.16;5096025;28;20103;-52
2022/06/30 07:48:18;;;;;;;35.70;15.73;;;;;;;19.49;80.92;101066.22;5095501;28;20483;-52
2022/06/30 07:50:44;;;;;;;42.58;16.73;;;;;;;19.58;79.46;101069.66;5095206;28;20027;-49
2022/06/30 07:53:09;;;;;;;41.10;16.73;;;;;;;19.64;79.75;101076.63;5095843;28;20100;-50
2022/06/30 07:55:35;;;;;;;38.15;16.67;;;;;;;19.69;80.76;101080.09;5095757;28;20041;-51
2022/06/30 07:58:00;;;;;;;36.53;16.17;;;;;;;19.71;79.08;101083.56;5094733;28;20024;-47
2022/06/30 08:00:25;;;;;;;42.47;16.75;;;;;;;19.77;80.79;101082.66;5095625;28;20020;-47
2022/06/30 08:02:52;;;;;;;39.92;14.95;;;;;;;19.78;78.30;101076.56;5095180;28;20043;-47
2022/06/30 08:05:17;;;;;;;30.08;14.35;;;;;;;19.76;77.97;101080.06;5095353;28;20505;-48
2022/06/30 08:07:43;;;;;;;35.10;15.00;;;;;;;19.81;78.28;101078.31;5095654;28;20063;-49
2022/06/30 08:10:08;;;;;;;43.70;14.50;;;;;;;19.89;79.93;101071.31;5094425;28;20052;-48
2022/06/30 08:12:35;;;;;;;32.08;13.57;;;;;;;19.96;77.53;101072.13;5095337;28;20066;-49
2022/06/30 08:15:01;;;;;;;33.22;13.77;;;;;;;20.03;76.15;101073.84;5095274;28;20020;-50
2022/06/30 08:17:27;;;;;;;31.63;11.70;;;;;;;20.08;74.99;101079.91;5094781;28;20119;-50
2022/06/30 08:19:53;;;;;;;29.17;12.80;;;;;;;20.16;75.60;101064.19;5095541;28;20091;-47
2022/06/30 08:22:18;;;;;;;33.63;12.13;;;;;;;20.18;75.26;101068.53;5095200;28;20028;-46
2022/06/30 08:24:43;;;;;;;26.40;12.30;;;;;;;20.18;73.11;101075.47;5094685;28;20035;-46
2022/06/30 08:27:08;;;;;;;35.60;11.65;;;;;;;20.27;73.67;101078.06;5095112;28;20024;-51
2022/06/30 08:29:34;;;;;;;30.85;11.52;;;;;;;20.33;72.39;101077.13;5095057;28;20024;-49
2022/06/30 08:32:01;;;;;;;30.50;11.10;;;;;;;20.38;71.92;101080.59;5093993;28;20032;-47
2022/06/30 08:34:26;;;;;;;24.50;9.82;;;;;;;20.53;73.81;101083.09;5095216;28;20023;-50
2022/06/30 08:36:52;;;;;;;26.33;9.32;;;;;;;20.71;72.61;101083.88;5095139;28;20016;-47
2022/06/30 08:42:02;;;;;;;30.23;10.45;;;;;;;21.10;70.00;101079.13;5095215;28;20035;-50
2022/06/30 08:44:30;;;;;;;23.80;9.63;;;;;;;21.19;68.97;101081.63;5095019;28;20081;-49
2022/06/30 08:46:57;;;;;;;31.77;10.43;;;;;;;21.19;68.28;101078.16;5094148;28;20050;-50
2022/06/30 08:49:23;;;;;;;18.30;9.07;;;;;;;21.23;69.21;101066.75;5094825;28;20120;-47
2022/06/30 08:51:49;;;;;;;20.42;8.40;;;;;;;21.30;69.17;101076.25;5094829;28;20115;-51
2022/06/30 08:54:19;;;;;;;28.08;9.77;;;;;;;21.47;69.13;101081.31;5093780;28;20035;-46
2022/06/30 08:56:46;;;;;;;23.88;9.20;;;;;;;21.60;67.65;101079.47;5094505;28;20437;-46
2022/06/30 08:59:11;;;;;;;17.67;8.82;;;;;;;21.76;69.15;101082.75;5093440;28;20383;-48
2022/06/30 09:01:37;;;;;;;26.20;8.75;;;;;;;21.92;67.34;101072.03;5094539;28;20472;-49
2022/06/30 09:04:02;;;;;;;21.00;9.52;;;;;;;21.98;65.85;101078.06;5094451;28;20380;-50
2022/06/30 09:06:28;;;;;;;19.50;8.73;;;;;;;21.98;65.04;101091.19;5093710;28;20078;-50
2022/06/30 09:08:53;;;;;;;22.98;9.77;;;;;;;22.03;65.53;101086.72;5094322;28;20395;-47
2022/06/30 09:11:19;;;;;;;26.58;8.98;;;;;;;22.11;66.08;101083.16;5093955;28;20484;-47
2022/06/30 09:13:48;;;;;;;20.17;7.55;;;;;;;22.31;65.26;101075.84;5093644;28;20027;-50
2022/06/30 09:16:14;;;;;;;18.90;9.30;;;;;;;22.36;63.58;101081.91;5094258;28;20054;-47
2022/06/30 09:18:40;;;;;;;23.00;9.02;;;;;;;22.49;62.33;101084.31;5094232;28;20030;-48
2022/06/30 09:21:19;;;;;;;21.92;8.65;;;;;;;22.66;64.82;101082.31;5092807;28;20020;-47
2022/06/30 09:23:46;;;;;;;24.73;8.68;;;;;;;22.77;63.27;101086.50;5094127;28;20016;-50
2022/06/30 09:26:19;;;;;;;20.63;9.17;;;;;;;23.00;65.15;101089.56;5094194;28;20032;-47
2022/06/30 09:28:54;;;;;;;25.23;8.80;;;;;;;23.09;60.89;101090.31;5093501;28;20028;-46
2022/06/30 09:31:39;;;;;;;18.45;8.82;;;;;;;23.14;61.65;101091.09;5093837;28;20024;-47
2022/06/30 09:34:16;;;;;;;27.90;7.88;;;;;;;23.22;61.90;101093.63;5093868;28;20028;-49
2022/06/30 09:36:42;;;;;;;;;;;;;;;23.40;63.54;101095.03;5094535;28;20031;-50
2022/06/30 09:39:09;;;;;;;23.63;7.97;;;;;;;23.50;59.04;101091.31;5093923;28;19918;-50
2022/06/30 09:41:39;;;;;;;22.50;7.88;;;;;;;23.62;58.87;101096.28;5092852;28;20451;-47
2022/06/30 09:44:24;;;;;;;16.45;8.27;;;;;;;23.78;58.30;101101.22;5093549;28;20456;-49
2022/06/30 09:46:59;;;;;;;23.35;8.65;;;;;;;23.73;56.74;101100.47;5093692;28;20099;-50
2022/06/30 09:49:36;;;;;;;19.60;9.15;;;;;;;23.72;57.58;101101.34;5093004;28;20028;-47
2022/06/30 09:52:04;;;;;;;25.27;9.38;;;;;;;23.78;56.50;101093.34;5093578;28;20078;-49
2022/06/30 09:54:34;;;;;;;23.20;8.27;;;;;;;23.87;56.57;101101.03;5093317;28;20386;-47
2022/06/30 09:57:01;;;;;;;23.30;7.55;;;;;;;24.37;54.72;101099.97;5092546;28;20024;-46
2022/06/30 09:59:26;;;;;;;20.05;7.28;;;;;;;24.57;56.44;101095.06;5093024;28;20495;-47
2022/06/30 10:01:55;;;;;;;17.23;7.85;;;;;;;24.85;53.77;101097.00;5093667;28;20028;-46
2022/06/30 10:04:21;;;;;;;13.32;6.18;;;;;;;24.93;53.97;101095.06;5092567;28;20024;-51
2022/06/30 10:06:46;;;;;;;18.48;7.63;;;;;;;24.82;51.91;101102.38;5093557;28;20026;-49
2022/06/30 10:09:18;;;;;;;18.15;6.82;;;;;;;24.95;52.33;101103.78;5093177;28;20074;-50
2022/06/30 10:11:45;;;;;;;24.05;7.05;;;;;;;25.30;51.70;101104.59;5092375;28;20399;-50
2022/06/30 10:14:11;;;;;;;18.58;6.43;;;;;;;25.59;52.03;101105.56;5093308;28;20027;-47
2022/06/30 10:16:42;;;;;;;21.98;7.15;;;;;;;25.71;49.85;101106.13;5092263;28;20398;-46
2022/06/30 10:19:11;;;;;;;16.65;6.38;;;;;;;26.03;49.17;101104.28;5093127;28;20027;-48
2022/06/30 10:21:38;;;;;;;19.90;6.47;;;;;;;26.52;49.62;101113.31;5093050;28;20443;-46
2022/06/30 10:24:07;;;;;;;19.83;6.30;;;;;;;26.79;47.15;101115.97;5092196;28;20096;-49
2022/06/30 10:29:18;;;;;;;19.17;5.90;;;;;;;27.96;47.19;101104.72;5093158;28;20046;-47
2022/06/30 10:32:01;;;;;;;15.07;4.95;;;;;;;28.88;45.23;101093.03;5092243;28;20040;-51
2022/06/30 10:34:34;;;;;;;21.17;5.40;;;;;;;29.67;42.48;101088.63;5093000;28;20028;-48
2022/06/30 10:37:16;;;;;;;16.65;5.97;;;;;;;30.38;42.71;101080.81;5092624;28;20111;-47
2022/06/30 10:40:17;;;;;;;10.85;4.70;;;;;;;30.78;41.79;101099.22;5091419;28;20028;-49
2022/06/30 10:42:49;;;;;;;11.52;5.20;;;;;;;29.67;38.53;101093.94;5092761;28;20077;-47
2022/06/30 10:45:27;;;;;;;14.27;4.72;;;;;;;29.45;43.21;101094.97;5091868;28;20031;-49
2022/06/30 10:48:04;;;;;;;16.40;6.32;;;;;;;29.63;41.65;101093.25;5093006;28;20028;-48
2022/06/30 10:50:42;;;;;;;15.93;5.22;;;;;;;30.09;42.06;101086.72;5092856;28;20158;-47
2022/06/30 10:53:10;;;;;;;12.95;4.65;;;;;;;30.32;40.68;101080.25;5091769;28;20361;-47
2022/06/30 10:55:47;;;;;;;10.48;4.25;;;;;;;30.72;41.69;101088.91;5092605;28;20048;-47
2022/06/30 10:58:13;;;;;;;10.73;4.38;;;;;;;31.05;38.34;101085.44;5092695;28;20032;-48
2022/06/30 11:00:55;;;;;;;14.10;4.13;;;;;;;31.37;39.26;101090.84;5091731;28;20051;-51
2022/06/30 11:03:56;;;;;;;11.48;4.53;;;;;;;31.30;39.50;101086.81;5092298;28;20024;-51
2022/06/30 11:06:23;;;;;;;11.88;4.18;;;;;;;31.68;35.92;101081.19;5088208;28;20088;-51
2022/06/30 11:08:49;;;;;;;13.32;5.07;;;;;;;31.83;34.92;101076.81;5092933;28;20024;-52
2022/06/30 11:11:20;;;;;;;;;;;;;;;32.35;37.74;101094.31;5092928;28;20054;-52
2022/06/30 11:14:14;;;;;;;13.45;5.28;;;;;;;30.95;37.41;101084.16;5091892;28;19951;-52
2022/06/30 11:16:39;;;;;;;13.13;5.20;;;;;;;30.24;39.62;101085.06;5092387;28;20039;-49
2022/06/30 11:19:19;;;;;;;16.03;5.03;;;;;;;29.71;40.67;101088.44;5092624;28;20017;-51
2022/06/30 11:21:45;;;;;;;14.13;5.00;;;;;;;29.33;41.27;101076.94;5091869;28;20221;-47
2022/06/30 11:24:14;;;;;;;25.75;4.93;;;;;;;29.29;41.43;101081.50;5092475;28;20020;-49
2022/06/30 11:29:28;;;;;;;14.60;4.90;;;;;;;28.17;42.94;101072.06;5092722;28;20568;-47
2022/06/30 11:32:00;;;;;;;16.17;5.25;;;;;;;27.37;45.81;101069.84;5092516;28;20028;-48
2022/06/30 11:34:26;;;;;;;18.33;5.82;;;;;;;26.76;48.86;101071.13;5091655;28;20081;-47